createdAt,value
2019-04-07T00:01:57.302Z,9.79
2019-04-07T00:04:28.297Z,9.72
2019-04-07T00:06:59.249Z,9.69
2019-04-07T00:09:30.366Z,9.61
2019-04-07T00:12:01.281Z,9.48
2019-04-07T00:14:32.908Z,9.32
2019-04-07T00:17:03.906Z,9.18
2019-04-07T00:19:35.053Z,9.03
2019-04-07T00:22:06.097Z,8.91
2019-04-07T00:24:37.134Z,8.84
2019-04-07T00:27:08.003Z,8.72
2019-04-07T00:29:39.515Z,8.67
2019-04-07T00:32:11.105Z,8.58
2019-04-07T00:34:42.374Z,8.51
2019-04-07T00:37:13.929Z,8.48
2019-04-07T00:39:45.089Z,8.39
2019-04-07T00:42:16.013Z,8.29
2019-04-07T00:44:47.471Z,8.28
2019-04-07T00:47:19.471Z,8.19
2019-04-07T00:49:51.195Z,8.09
2019-04-07T00:52:23.936Z,8.02
2019-04-07T00:54:54.848Z,7.95
2019-04-07T00:57:26.401Z,7.87
2019-04-07T00:59:57.308Z,7.81
2019-04-07T01:02:28.570Z,7.70
2019-04-07T01:04:59.924Z,7.60
2019-04-07T01:07:30.944Z,7.50
2019-04-07T01:10:02.171Z,7.39
2019-04-07T01:12:33.628Z,7.28
2019-04-07T01:15:07.721Z,7.22
2019-04-07T01:17:39.208Z,7.16
2019-04-07T01:20:11.824Z,7.17
2019-04-07T01:22:42.784Z,7.20
2019-04-07T01:25:13.907Z,7.20
2019-04-07T01:27:45.476Z,7.12
2019-04-07T01:30:17.189Z,7.08
2019-04-07T01:32:48.349Z,7.02
2019-04-07T01:35:19.258Z,7.00
2019-04-07T01:37:50.679Z,6.92
2019-04-07T01:40:21.588Z,6.84
2019-04-07T01:42:56.710Z,6.75
2019-04-07T01:45:41.282Z,6.76
2019-04-07T01:48:20.367Z,6.92
2019-04-07T01:51:09.494Z,7.04
2019-04-07T01:53:51.007Z,6.96
2019-04-07T01:56:38.474Z,6.90
2019-04-07T01:59:27.359Z,6.85
2019-04-07T02:02:02.756Z,6.86
2019-04-07T02:04:35.845Z,6.69
2019-04-07T02:07:11.703Z,6.59
2019-04-07T02:09:53.374Z,6.51
2019-04-07T02:12:32.278Z,6.55
2019-04-07T02:15:08.557Z,6.51
2019-04-07T02:17:50.598Z,6.45
2019-04-07T02:20:58.947Z,6.42
2019-04-07T02:23:47.177Z,6.27
2019-04-07T02:26:35.020Z,6.10
2019-04-07T02:29:19.504Z,6.08
2019-04-07T02:31:55.202Z,6.13
2019-04-07T02:34:30.548Z,6.10
2019-04-07T02:37:19.297Z,6.00
2019-04-07T02:39:52.675Z,5.95
2019-04-07T02:42:34.395Z,5.86
2019-04-07T02:45:09.090Z,5.78
2019-04-07T02:47:44.831Z,5.75
2019-04-07T02:50:24.108Z,5.73
2019-04-07T02:53:13.575Z,5.69
2019-04-07T02:55:58.317Z,5.64
2019-04-07T02:58:33.299Z,5.61
2019-04-07T03:01:09.656Z,5.63
2019-04-07T03:03:48.461Z,5.72
2019-04-07T03:06:37.626Z,5.84
2019-04-07T03:09:11.585Z,5.82
2019-04-07T03:11:56.809Z,5.78
2019-04-07T03:14:47.647Z,5.70
2019-04-07T03:17:29.764Z,5.66
2019-04-07T03:20:07.076Z,5.64
2019-04-07T03:22:48.400Z,5.65
2019-04-07T03:25:23.995Z,5.68
2019-04-07T03:28:00.506Z,5.76
2019-04-07T03:30:51.526Z,5.78
2019-04-07T03:33:28.386Z,5.94
2019-04-07T03:36:03.014Z,5.98
2019-04-07T03:38:38.461Z,6.12
2019-04-07T03:41:24.056Z,6.25
2019-04-07T03:43:59.572Z,6.32
2019-04-07T03:46:32.616Z,6.31
2019-04-07T03:49:06.027Z,6.37
2019-04-07T03:51:41.693Z,6.42
2019-04-07T03:54:30.292Z,6.37
2019-04-07T03:57:03.067Z,6.33
2019-04-07T03:59:44.641Z,6.30
2019-04-07T04:02:34.412Z,6.30
2019-04-07T04:05:22.790Z,6.24
2019-04-07T04:07:55.387Z,6.22
2019-04-07T04:10:30.875Z,6.17
2019-04-07T04:13:03.404Z,6.18
2019-04-07T04:15:48.327Z,6.16
2019-04-07T04:18:20.394Z,6.10
2019-04-07T04:20:51.551Z,6.17
2019-04-07T04:23:22.427Z,6.10
2019-04-07T04:25:53.772Z,5.96
2019-04-07T04:28:24.756Z,5.82
2019-04-07T04:30:56.477Z,5.65
2019-04-07T04:33:27.681Z,5.54
2019-04-07T04:35:59.097Z,5.46
2019-04-07T04:38:30.160Z,5.36
2019-04-07T04:41:01.374Z,5.34
2019-04-07T04:43:33.841Z,5.26
2019-04-07T04:46:08.308Z,5.13
2019-04-07T04:48:37.487Z,4.98
2019-04-07T04:51:08.666Z,4.89
2019-04-07T04:53:39.974Z,4.82
2019-04-07T04:56:11.109Z,4.70
2019-04-07T04:58:42.428Z,4.65
2019-04-07T05:01:13.502Z,4.63
2019-04-07T05:03:44.749Z,4.62
2019-04-07T05:06:18.627Z,4.60
2019-04-07T05:08:49.981Z,4.68
2019-04-07T05:11:21.225Z,4.64
2019-04-07T05:13:52.873Z,4.67
2019-04-07T05:16:24.084Z,4.70
2019-04-07T05:18:54.986Z,4.72
2019-04-07T05:21:26.194Z,4.70
2019-04-07T05:23:57.290Z,4.68
2019-04-07T05:26:29.073Z,4.68
2019-04-07T05:29:00.455Z,4.71
2019-04-07T05:31:33.747Z,4.76
2019-04-07T05:34:05.391Z,4.83
2019-04-07T05:36:36.956Z,4.99
2019-04-07T05:39:08.665Z,5.05
2019-04-07T05:41:40.007Z,5.12
2019-04-07T05:44:11.586Z,5.21
2019-04-07T05:46:43.419Z,5.30
2019-04-07T05:49:16.243Z,5.40
2019-04-07T05:51:47.152Z,5.64
2019-04-07T05:54:19.772Z,5.84
2019-04-07T05:56:51.471Z,5.99
2019-04-07T05:59:22.298Z,6.18
2019-04-07T06:01:58.454Z,6.38
2019-04-07T14:20:15.029Z,23.59
2019-04-07T14:23:02.134Z,24.45
2019-04-07T14:25:47.052Z,25.17
2019-04-07T14:28:19.000Z,25.64
2019-04-07T14:31:07.593Z,23.90
2019-04-07T14:33:57.363Z,23.92
2019-04-07T14:36:42.691Z,22.82
2019-04-07T14:39:17.604Z,22.15
2019-04-07T14:42:08.535Z,21.52
2019-04-07T14:44:41.219Z,21.87
2019-04-07T14:47:18.590Z,21.79
2019-04-07T14:50:04.904Z,22.68
2019-04-07T14:52:38.318Z,23.12
2019-04-07T14:55:10.999Z,23.19
2019-04-07T14:57:50.260Z,22.63
2019-04-07T15:00:27.270Z,22.97
2019-04-07T15:02:58.572Z,22.82
2019-04-07T15:05:32.664Z,21.98
2019-04-07T15:08:11.670Z,22.73
2019-04-07T15:10:50.338Z,23.90
2019-04-07T15:13:25.784Z,23.08
2019-04-07T15:15:56.102Z,23.11
2019-04-07T15:18:27.605Z,23.43
2019-04-07T15:21:00.121Z,23.38
2019-04-07T15:23:32.870Z,23.39
2019-04-07T15:26:03.872Z,23.51
2019-04-07T15:28:34.961Z,23.09
2019-04-07T15:31:06.417Z,23.08
2019-04-07T15:33:38.132Z,23.33
2019-04-07T15:36:09.673Z,22.90
2019-04-07T15:38:41.822Z,22.54
2019-04-07T15:41:16.441Z,21.90
2019-04-07T15:43:46.408Z,21.73
2019-04-07T15:46:19.170Z,21.90
2019-04-07T15:48:54.289Z,21.73
2019-04-07T15:51:23.812Z,21.02
2019-04-07T15:53:55.373Z,20.79
2019-04-07T15:56:27.139Z,20.23
2019-04-07T15:59:00.951Z,20.40
2019-04-07T16:01:31.539Z,20.36
2019-04-07T16:04:02.565Z,19.44
2019-04-07T16:06:36.085Z,19.62
2019-04-07T16:09:16.744Z,19.62
2019-04-07T16:11:41.347Z,19.50
2019-04-07T16:14:13.617Z,19.05
2019-04-07T16:16:45.173Z,18.93
2019-04-07T16:19:21.959Z,18.66
2019-04-07T16:21:49.438Z,18.50
2019-04-07T16:24:21.966Z,18.29
2019-04-07T16:26:53.313Z,17.93
2019-04-07T16:29:24.378Z,17.65
2019-04-07T16:31:56.990Z,17.63
2019-04-07T16:34:28.382Z,17.34
2019-04-07T16:37:00.421Z,16.99
2019-04-07T16:39:34.495Z,16.98
2019-04-07T16:42:04.626Z,16.82
2019-04-07T16:44:37.668Z,16.71
2019-04-07T16:47:17.842Z,16.58
2019-04-07T16:49:44.625Z,16.48
2019-04-07T16:52:14.034Z,16.37
2019-04-07T16:54:47.957Z,16.29
2019-04-07T16:57:41.517Z,16.29
2019-04-07T17:00:16.389Z,16.38
2019-04-07T17:02:48.077Z,16.63
2019-04-07T17:05:21.892Z,16.72
2019-04-07T17:07:55.705Z,16.67
2019-04-07T17:10:28.732Z,16.44
2019-04-07T17:13:00.814Z,16.16
2019-04-07T17:15:34.777Z,16.01
2019-04-07T17:18:09.797Z,15.88
2019-04-07T17:20:44.710Z,15.80
2019-04-07T17:23:16.690Z,15.72
2019-04-07T17:25:56.238Z,15.63
2019-04-07T17:28:31.276Z,15.56
2019-04-07T17:31:03.196Z,15.53
2019-04-07T17:33:36.786Z,15.47
2019-04-07T17:36:07.912Z,15.38
2019-04-07T17:38:53.061Z,15.28
2019-04-07T17:41:24.204Z,15.19
2019-04-07T17:44:00.955Z,15.10
2019-04-07T17:46:43.493Z,15.00
2019-04-07T17:49:30.946Z,14.93
2019-04-07T17:52:11.079Z,14.83
2019-04-07T17:54:48.889Z,14.77
2019-04-07T17:57:22.566Z,14.70
2019-04-07T18:00:04.669Z,14.60
2019-04-07T18:03:07.491Z,14.49
2019-04-07T18:05:59.283Z,14.38
2019-04-07T18:08:43.351Z,14.30
2019-04-07T18:11:17.764Z,14.27
2019-04-07T18:13:51.534Z,14.23
2019-04-07T18:16:40.711Z,14.23
2019-04-07T18:19:22.161Z,14.25
2019-04-07T18:22:04.059Z,14.21
2019-04-07T18:24:53.120Z,14.17
2019-04-07T18:27:31.874Z,14.09
2019-04-07T18:30:18.640Z,14.03
2019-04-07T18:32:57.621Z,13.94
2019-04-07T18:35:40.920Z,13.89
2019-04-07T18:38:17.154Z,13.83
2019-04-07T18:41:09.391Z,13.77
2019-04-07T18:43:50.664Z,13.70
2019-04-07T18:46:22.608Z,13.66
2019-04-07T18:49:11.689Z,13.55
2019-04-07T18:51:56.899Z,13.48
2019-04-07T18:54:31.089Z,13.46
2019-04-07T18:57:10.581Z,13.38
2019-04-07T19:00:01.125Z,13.30
2019-04-07T19:02:31.931Z,13.19
2019-04-07T19:05:08.247Z,13.09
2019-04-07T19:07:45.876Z,13.02
2019-04-07T19:10:24.207Z,12.92
2019-04-07T19:13:11.011Z,12.87
2019-04-07T19:15:40.062Z,12.82
2019-04-07T19:18:14.872Z,12.76
2019-04-07T19:20:50.379Z,12.71
2019-04-07T19:23:26.230Z,12.63
2019-04-07T19:26:03.157Z,12.52
2019-04-07T19:28:54.149Z,12.44
2019-04-07T19:31:48.089Z,12.40
2019-04-07T19:34:28.497Z,12.34
2019-04-07T19:37:15.324Z,12.37
2019-04-07T19:39:49.087Z,12.39
2019-04-07T19:42:21.955Z,12.37
2019-04-07T19:45:04.270Z,12.45
2019-04-07T19:47:46.500Z,12.41
2019-04-07T19:50:36.987Z,12.34
2019-04-07T19:53:12.919Z,12.23
2019-04-07T19:55:46.529Z,12.03
2019-04-07T19:58:19.752Z,11.89
2019-04-07T20:01:03.387Z,11.80
2019-04-07T20:03:47.316Z,11.68
2019-04-07T20:06:23.132Z,11.54
2019-04-07T20:08:58.255Z,11.48
2019-04-07T20:11:45.936Z,11.40
2019-04-07T20:14:30.696Z,11.32
2019-04-07T20:17:06.569Z,11.27
2019-04-07T20:19:45.017Z,11.20
2019-04-07T20:22:17.612Z,11.12
2019-04-07T20:24:53.073Z,11.01
2019-04-07T20:27:28.496Z,10.92
2019-04-07T20:30:03.144Z,10.86
2019-04-07T20:32:36.165Z,10.81
2019-04-07T20:35:14.556Z,10.72
2019-04-07T20:37:50.917Z,10.66
2019-04-07T20:40:23.675Z,10.57
2019-04-07T20:43:12.914Z,10.49
2019-04-07T20:46:04.588Z,10.52
2019-04-07T20:48:46.328Z,10.50
2019-04-07T20:51:19.257Z,10.51
2019-04-07T20:53:51.807Z,10.51
2019-04-07T20:56:27.334Z,10.60
2019-04-07T20:59:09.867Z,10.62
2019-04-07T21:01:58.767Z,10.76
2019-04-07T21:04:28.648Z,10.85
2019-04-07T21:07:11.075Z,10.94
2019-04-07T21:09:44.033Z,11.05
2019-04-07T21:12:23.173Z,11.12
2019-04-07T21:15:17.422Z,11.19
2019-04-07T21:17:41.385Z,11.28
2019-04-07T21:20:30.379Z,11.34
2019-04-07T21:23:19.942Z,11.39
2019-04-07T21:26:02.073Z,11.44
2019-04-07T21:28:37.457Z,11.52
2019-04-07T21:31:26.137Z,11.55
2019-04-07T21:34:10.459Z,11.61
2019-04-07T21:36:58.130Z,11.72
2019-04-07T21:39:48.927Z,11.78
2019-04-07T21:42:33.984Z,11.87
2019-04-07T21:45:35.392Z,11.89
2019-04-07T21:48:00.193Z,11.84
2019-04-07T21:50:32.602Z,11.84
2019-04-07T21:53:05.251Z,11.86
2019-04-07T21:55:41.801Z,11.88
2019-04-07T21:58:14.344Z,11.91
2019-04-07T22:00:48.449Z,11.93
2019-04-07T22:03:23.304Z,11.95
2019-04-07T22:06:11.830Z,12.05
2019-04-07T22:09:00.299Z,12.09
2019-04-07T22:11:31.313Z,12.10
2019-04-07T22:14:04.087Z,12.11
2019-04-07T22:16:35.413Z,12.09
2019-04-07T22:19:10.563Z,12.07
2019-04-07T22:21:40.386Z,12.06
2019-04-07T22:24:11.429Z,12.05
2019-04-07T22:26:46.170Z,12.08
2019-04-07T22:29:16.117Z,12.04
2019-04-07T22:31:51.548Z,12.00
2019-04-07T22:34:22.743Z,11.98
2019-04-07T22:36:53.857Z,11.97
2019-04-07T22:39:27.486Z,11.91
2019-04-07T22:41:58.334Z,11.88
2019-04-07T22:44:29.385Z,11.84
2019-04-07T22:47:00.297Z,11.78
2019-04-07T22:49:32.195Z,11.72
2019-04-07T22:52:03.597Z,11.71
2019-04-07T22:54:34.871Z,11.66
2019-04-07T22:57:11.857Z,11.59
2019-04-07T22:59:38.711Z,11.56
2019-04-07T23:02:09.833Z,11.51
2019-04-07T23:04:40.877Z,11.41
2019-04-07T23:07:11.811Z,11.38
2019-04-07T23:09:42.914Z,11.36
2019-04-07T23:12:14.745Z,11.33
2019-04-07T23:14:45.722Z,11.33
2019-04-07T23:17:17.545Z,11.34
2019-04-07T23:19:48.540Z,11.33
2019-04-07T23:22:20.111Z,11.34
2019-04-07T23:24:51.235Z,11.32
2019-04-07T23:27:22.215Z,11.30
2019-04-07T23:29:53.110Z,11.33
2019-04-07T23:32:24.139Z,11.35
2019-04-07T23:34:55.485Z,11.37
2019-04-07T23:37:26.522Z,11.39
2019-04-07T23:39:58.085Z,11.37
2019-04-07T23:42:29.390Z,11.33
2019-04-07T23:45:00.791Z,11.36
2019-04-07T23:47:31.821Z,11.37
2019-04-07T23:50:02.970Z,11.38
2019-04-07T23:52:33.924Z,11.38
2019-04-07T23:55:05.044Z,11.36
2019-04-07T23:57:36.049Z,11.25
